createdAt,value
2018-12-12T00:01:19.561Z,20.50
2018-12-12T00:03:52.240Z,20.77
2018-12-12T00:06:24.874Z,20.08
2018-12-12T00:08:55.591Z,19.90
2018-12-12T00:11:26.138Z,20.40
2018-12-12T00:13:57.031Z,21.70
2018-12-12T00:16:27.553Z,22.35
2018-12-12T00:18:58.029Z,25.40
2018-12-12T00:21:29.055Z,23.62
2018-12-12T00:23:59.413Z,21.87
2018-12-12T00:26:30.015Z,22.65
2018-12-12T00:29:00.727Z,23.02
2018-12-12T00:31:31.424Z,22.62
2018-12-12T00:34:02.379Z,23.80
2018-12-12T00:36:33.445Z,23.32
2018-12-12T00:39:06.000Z,24.80
2018-12-12T00:41:38.103Z,24.60
2018-12-12T00:44:08.819Z,23.15
2018-12-12T00:46:39.563Z,23.38
2018-12-12T00:49:10.600Z,22.02
2018-12-12T00:51:41.048Z,23.15
2018-12-12T00:54:11.905Z,22.50
2018-12-12T00:56:42.523Z,22.82
2018-12-12T00:59:13.144Z,22.45
2018-12-12T01:01:43.638Z,23.30
2018-12-12T01:04:14.249Z,23.18
2018-12-12T01:06:45.064Z,24.55
2018-12-12T01:09:15.749Z,25.08
2018-12-12T01:11:51.096Z,24.57
2018-12-12T01:14:21.653Z,25.10
2018-12-12T01:16:52.393Z,24.45
2018-12-12T01:19:22.896Z,25.55
2018-12-12T01:21:53.460Z,26.97
2018-12-12T01:24:24.210Z,25.57
2018-12-12T01:26:54.835Z,24.85
2018-12-12T01:29:25.499Z,26.07
2018-12-12T01:31:56.227Z,27.93
2018-12-12T01:34:27.096Z,26.07
2018-12-12T01:36:58.213Z,25.37
2018-12-12T01:39:29.487Z,29.48
2018-12-12T01:42:00.865Z,29.67
2018-12-12T01:44:31.703Z,35.52
2018-12-12T01:47:02.121Z,34.20
2018-12-12T01:49:32.868Z,34.90
2018-12-12T01:52:03.329Z,33.73
2018-12-12T01:54:33.853Z,34.58
2018-12-12T01:57:04.194Z,33.58
2018-12-12T01:59:34.929Z,33.80
2018-12-12T02:02:05.581Z,33.00
2018-12-12T02:04:35.951Z,31.82
2018-12-12T02:07:06.550Z,31.87
2018-12-12T02:09:37.038Z,31.85
2018-12-12T02:12:07.788Z,30.82
2018-12-12T02:14:38.855Z,29.67
2018-12-12T02:17:09.610Z,29.37
2018-12-12T02:19:40.300Z,28.10
2018-12-12T02:22:10.908Z,27.50
2018-12-12T02:24:41.184Z,27.42
2018-12-12T02:27:11.903Z,28.73
2018-12-12T02:29:42.465Z,27.30
2018-12-12T02:32:13.175Z,24.95
2018-12-12T02:34:43.854Z,25.95
2018-12-12T02:37:14.682Z,23.85
2018-12-12T02:39:45.549Z,23.05
2018-12-12T02:42:16.168Z,21.77
2018-12-12T02:44:46.831Z,22.37
2018-12-12T02:47:17.386Z,21.33
2018-12-12T02:49:47.999Z,23.62
2018-12-12T02:52:18.741Z,25.60
2018-12-12T02:54:49.286Z,25.90
2018-12-12T02:57:19.802Z,26.85
2018-12-12T02:59:50.277Z,25.88
2018-12-12T03:02:20.856Z,26.75
2018-12-12T03:04:52.108Z,26.95
2018-12-12T03:07:23.120Z,26.48
2018-12-12T03:09:53.621Z,27.77
2018-12-12T03:12:24.265Z,28.67
2018-12-12T03:14:54.707Z,27.82
2018-12-12T03:17:25.411Z,28.60
2018-12-12T03:19:55.962Z,28.75
2018-12-12T03:22:26.273Z,29.63
2018-12-12T03:24:56.875Z,29.02
2018-12-12T03:27:27.337Z,28.75
2018-12-12T03:29:58.147Z,30.52
2018-12-12T03:32:28.961Z,29.95
2018-12-12T03:34:59.697Z,30.00
2018-12-12T03:37:30.441Z,29.60
2018-12-12T03:40:01.606Z,29.25
2018-12-12T03:42:32.626Z,31.42
2018-12-12T03:45:03.105Z,30.05
2018-12-12T03:47:33.849Z,30.40
2018-12-12T03:50:04.721Z,30.60
2018-12-12T03:52:35.858Z,31.30
2018-12-12T03:55:07.204Z,31.40
2018-12-12T03:57:37.862Z,31.42
2018-12-12T04:00:09.525Z,31.10
2018-12-12T04:02:41.188Z,30.45
2018-12-12T04:05:11.733Z,30.30
2018-12-12T04:07:42.519Z,30.15
2018-12-12T04:10:13.053Z,31.17
2018-12-12T04:12:43.877Z,31.30
2018-12-12T04:15:14.549Z,32.30
2018-12-12T04:17:45.148Z,32.88
2018-12-12T04:20:16.084Z,30.50
2018-12-12T04:22:46.792Z,35.33
2018-12-12T04:25:17.436Z,35.17
2018-12-12T04:27:48.009Z,35.73
2018-12-12T04:30:18.570Z,34.30
2018-12-12T04:32:49.487Z,33.15
2018-12-12T04:35:20.362Z,32.20
2018-12-12T04:37:50.913Z,31.75
2018-12-12T04:40:21.476Z,36.88
2018-12-12T04:42:52.159Z,36.60
2018-12-12T04:45:22.689Z,33.20
2018-12-12T04:47:53.218Z,32.67
2018-12-12T04:50:23.666Z,30.62
2018-12-12T04:52:54.219Z,36.15
2018-12-12T04:55:25.046Z,32.75
2018-12-12T04:57:55.742Z,31.10
2018-12-12T05:00:26.502Z,29.95
2018-12-12T05:02:57.591Z,29.45
2018-12-12T05:05:28.218Z,27.95
2018-12-12T05:07:58.706Z,27.22
2018-12-12T05:10:29.507Z,25.88
2018-12-12T05:13:00.349Z,29.23
2018-12-12T05:15:31.349Z,35.75
2018-12-12T05:18:01.888Z,39.18
2018-12-12T05:20:32.526Z,45.00
2018-12-12T05:23:03.194Z,47.98
2018-12-12T05:25:34.493Z,47.00
2018-12-12T05:28:05.066Z,51.28
2018-12-12T05:30:35.601Z,55.85
2018-12-12T05:33:06.356Z,58.40
2018-12-12T05:35:36.794Z,56.20
2018-12-12T05:38:07.324Z,61.23
2018-12-12T05:40:39.210Z,68.72
2018-12-12T05:43:09.836Z,65.10
2018-12-12T05:45:40.749Z,68.02
2018-12-12T05:48:11.488Z,71.55
2018-12-12T05:50:42.027Z,71.77
2018-12-12T05:53:13.171Z,61.13
2018-12-12T05:55:43.857Z,57.58
2018-12-12T05:58:14.668Z,50.08
2018-12-12T06:00:45.354Z,46.23
2018-12-12T06:03:15.999Z,56.18
2018-12-12T06:05:46.910Z,43.10
2018-12-12T06:08:17.744Z,33.10
2018-12-12T06:10:48.507Z,32.05
2018-12-12T06:13:19.730Z,33.23
2018-12-12T06:15:50.440Z,40.03
2018-12-12T06:18:21.790Z,39.95
2018-12-12T06:20:52.273Z,39.83
2018-12-12T06:23:22.742Z,35.83
2018-12-12T06:25:53.510Z,38.28
2018-12-12T06:28:23.925Z,39.25
2018-12-12T06:30:54.578Z,53.52
2018-12-12T06:33:24.960Z,53.55
2018-12-12T06:35:55.701Z,50.15
2018-12-12T06:38:26.363Z,43.28
2018-12-12T06:40:57.045Z,41.85
2018-12-12T06:43:27.627Z,40.08
2018-12-12T06:45:58.776Z,41.60
2018-12-12T06:48:29.594Z,43.98
2018-12-12T06:51:00.321Z,46.73
2018-12-12T06:53:31.095Z,49.50
2018-12-12T06:56:02.110Z,52.67
2018-12-12T06:58:32.819Z,55.20
2018-12-12T07:01:03.681Z,65.78
2018-12-12T07:03:34.376Z,59.90
2018-12-12T07:06:05.083Z,60.67
2018-12-12T07:08:36.043Z,61.37
2018-12-12T07:11:06.842Z,60.45
2018-12-12T07:13:37.600Z,69.55
2018-12-12T07:16:08.297Z,82.65
2018-12-12T07:18:39.113Z,98.17
2018-12-12T07:21:09.857Z,134.57
2018-12-12T07:23:40.565Z,90.90
2018-12-12T07:26:11.242Z,96.53
2018-12-12T07:28:41.714Z,77.42
2018-12-12T07:31:18.539Z,82.25
2018-12-12T07:33:49.301Z,61.50
2018-12-12T07:36:20.024Z,62.67
2018-12-12T07:38:51.046Z,55.45
2018-12-12T07:41:21.586Z,48.80
2018-12-12T07:43:54.552Z,45.38
2018-12-12T07:46:43.273Z,47.17
2018-12-12T07:49:16.153Z,52.05
2018-12-12T07:52:06.580Z,52.03
2018-12-12T07:54:37.539Z,51.10
2018-12-12T07:57:08.304Z,47.95
2018-12-12T07:59:39.161Z,49.00
2018-12-12T08:02:09.966Z,50.20
2018-12-12T08:04:40.700Z,51.20
2018-12-12T08:07:11.612Z,55.58
2018-12-12T08:09:42.610Z,56.50
2018-12-12T08:12:13.434Z,51.30
2018-12-12T08:14:43.996Z,55.15
2018-12-12T08:17:14.996Z,57.27
2018-12-12T08:19:45.530Z,54.30
2018-12-12T08:22:16.003Z,57.90
2018-12-12T08:24:46.814Z,56.50
2018-12-12T08:27:17.154Z,58.38
2018-12-12T08:29:47.835Z,54.05
2018-12-12T08:32:18.534Z,31.05
2018-12-12T08:34:49.345Z,22.25
2018-12-12T08:37:19.832Z,13.35
2018-12-12T08:39:50.689Z,8.43
2018-12-12T08:42:21.436Z,5.53
2018-12-12T08:44:52.067Z,6.78
2018-12-12T08:47:22.719Z,10.75
2018-12-12T08:49:53.503Z,19.57
2018-12-12T08:52:24.267Z,20.88
2018-12-12T08:54:54.871Z,16.07
2018-12-12T08:57:25.593Z,18.95
2018-12-12T08:59:56.194Z,29.23
2018-12-12T09:02:26.669Z,16.37
2018-12-12T09:04:57.257Z,17.50
2018-12-12T09:07:28.276Z,17.95
2018-12-12T09:09:58.944Z,18.60
2018-12-12T09:12:30.749Z,13.45
2018-12-12T09:15:01.386Z,21.85
2018-12-12T09:17:31.793Z,30.50
2018-12-12T09:20:03.582Z,26.45
2018-12-12T09:22:34.186Z,27.37
2018-12-12T09:25:04.817Z,27.58
2018-12-12T09:27:35.571Z,32.58
2018-12-12T09:30:08.517Z,31.07
2018-12-12T09:32:41.285Z,27.95
2018-12-12T09:35:30.846Z,42.33
2018-12-12T09:38:02.104Z,32.15
2018-12-12T09:40:33.869Z,44.30
2018-12-12T09:43:04.366Z,34.25
2018-12-12T09:45:35.234Z,31.40
2018-12-12T09:48:05.948Z,33.80
2018-12-12T09:50:36.474Z,40.30
2018-12-12T09:53:09.319Z,34.98
2018-12-12T09:55:40.411Z,27.80
2018-12-12T09:58:11.141Z,26.93
2018-12-12T10:00:42.144Z,29.98
2018-12-12T10:03:12.531Z,29.25
2018-12-12T10:05:43.156Z,36.95
2018-12-12T10:08:16.315Z,42.38
2018-12-12T10:10:47.430Z,42.73
2018-12-12T10:13:18.105Z,46.55
2018-12-12T10:15:49.058Z,29.90
2018-12-12T10:18:19.785Z,16.55
2018-12-12T10:20:50.719Z,25.62
2018-12-12T10:23:21.075Z,28.83
2018-12-12T10:25:51.812Z,23.20
2018-12-12T10:28:22.370Z,19.73
2018-12-12T10:30:52.834Z,16.27
2018-12-12T10:33:23.772Z,14.20
2018-12-12T10:35:54.545Z,12.30
2018-12-12T10:38:25.582Z,12.68
2018-12-12T10:40:56.353Z,15.43
2018-12-12T10:43:27.086Z,13.15
2018-12-12T10:45:57.994Z,13.30
2018-12-12T10:48:28.762Z,13.45
2018-12-12T10:50:59.623Z,13.28
2018-12-12T10:53:30.357Z,11.28
2018-12-12T10:56:01.145Z,13.32
2018-12-12T10:58:31.845Z,13.10
2018-12-12T11:01:07.695Z,13.48
2018-12-12T11:03:44.142Z,14.63
2018-12-12T11:06:14.071Z,18.12
2018-12-12T11:08:45.005Z,12.78
2018-12-12T11:11:15.922Z,14.13
2018-12-12T11:13:46.603Z,14.00
2018-12-12T11:16:17.303Z,15.35
2018-12-12T11:18:48.290Z,14.95
2018-12-12T11:21:19.033Z,12.82
2018-12-12T11:23:49.724Z,14.85
2018-12-12T11:26:20.399Z,11.22
2018-12-12T11:28:51.378Z,14.15
2018-12-12T11:31:22.012Z,14.80
2018-12-12T11:33:52.835Z,27.37
2018-12-12T11:36:23.279Z,16.27
2018-12-12T11:38:53.864Z,25.60
2018-12-12T11:41:24.660Z,25.65
2018-12-12T11:43:55.539Z,23.80
2018-12-12T11:46:26.260Z,18.37
2018-12-12T11:48:57.102Z,24.75
2018-12-12T11:51:27.579Z,13.22
2018-12-12T11:53:58.405Z,27.15
2018-12-12T11:56:28.976Z,17.82
2018-12-12T11:58:59.560Z,29.05
2018-12-12T12:01:30.312Z,31.70
2018-12-12T12:04:00.817Z,23.65
2018-12-12T12:06:31.783Z,24.98
2018-12-12T12:09:02.387Z,31.82
2018-12-12T12:11:32.967Z,19.73
2018-12-12T12:14:05.907Z,29.07
2018-12-12T12:16:36.666Z,36.58
2018-12-12T12:19:07.020Z,36.10
2018-12-12T12:21:37.868Z,40.78
2018-12-12T12:24:09.038Z,36.83
2018-12-12T12:26:39.817Z,32.25
2018-12-12T12:29:10.383Z,32.58
2018-12-12T12:31:41.195Z,26.12
2018-12-12T12:34:11.956Z,18.57
2018-12-12T12:36:42.643Z,16.77
2018-12-12T12:39:13.135Z,17.65
2018-12-12T12:41:43.929Z,17.80
2018-12-12T12:44:14.374Z,32.85
2018-12-12T12:46:45.414Z,25.70
2018-12-12T12:49:15.983Z,24.32
2018-12-12T12:51:46.500Z,24.80
2018-12-12T12:54:17.068Z,23.95
2018-12-12T12:56:47.672Z,27.73
2018-12-12T12:59:18.113Z,28.55
2018-12-12T13:01:48.844Z,31.57
2018-12-12T13:04:19.437Z,31.57
2018-12-12T13:06:50.511Z,31.68
2018-12-12T13:09:20.981Z,29.85
2018-12-12T13:11:51.510Z,36.25
2018-12-12T13:14:22.182Z,39.95
2018-12-12T13:16:52.934Z,44.80
2018-12-12T13:19:23.755Z,37.98
2018-12-12T13:21:54.680Z,38.80
2018-12-12T13:24:25.423Z,31.20
2018-12-12T13:26:56.179Z,31.55
2018-12-12T13:29:26.872Z,39.60
2018-12-12T13:31:57.427Z,36.30
2018-12-12T13:34:28.006Z,24.57
2018-12-12T13:36:58.829Z,19.48
2018-12-12T13:39:29.667Z,19.50
2018-12-12T13:42:02.578Z,17.73
2018-12-12T13:44:33.170Z,17.67
2018-12-12T13:47:04.232Z,18.75
2018-12-12T13:49:35.046Z,23.92
2018-12-12T13:52:05.608Z,23.57
2018-12-12T13:54:36.233Z,21.02
2018-12-12T13:57:06.964Z,16.82
2018-12-12T13:59:37.331Z,13.15
2018-12-12T14:02:09.276Z,11.28
2018-12-12T14:04:39.952Z,10.23
2018-12-12T14:07:10.556Z,12.43
2018-12-12T14:09:41.221Z,33.48
2018-12-12T14:12:17.383Z,39.55
2018-12-12T14:14:45.676Z,28.85
2018-12-12T14:17:16.989Z,31.20
2018-12-12T14:19:47.589Z,34.98
2018-12-12T14:22:18.445Z,22.20
2018-12-12T14:24:49.061Z,24.30
2018-12-12T14:27:19.834Z,16.40
2018-12-12T14:29:50.340Z,16.50
2018-12-12T14:32:21.133Z,15.05
2018-12-12T14:34:51.557Z,12.53
2018-12-12T14:37:22.170Z,12.85
2018-12-12T14:39:52.920Z,11.60
2018-12-12T14:42:23.699Z,12.30
2018-12-12T14:45:01.944Z,18.23
2018-12-12T14:47:34.095Z,29.92
2018-12-12T14:50:04.975Z,25.32
2018-12-12T14:52:35.771Z,21.70
2018-12-12T14:55:07.687Z,19.80
2018-12-12T14:57:38.832Z,21.27
2018-12-12T15:00:09.632Z,19.90
2018-12-12T15:02:40.181Z,17.82
2018-12-12T15:05:10.836Z,19.52
2018-12-12T15:07:41.897Z,18.67
2018-12-12T15:10:12.745Z,22.82
2018-12-12T15:12:43.590Z,36.60
2018-12-12T15:15:14.516Z,35.95
2018-12-12T15:17:45.512Z,24.82
2018-12-12T15:20:16.632Z,23.65
2018-12-12T15:22:47.513Z,21.48
2018-12-12T15:25:18.204Z,18.55
2018-12-12T15:27:48.962Z,19.27
2018-12-12T15:30:19.491Z,19.62
2018-12-12T15:32:51.224Z,19.42
2018-12-12T15:35:21.836Z,18.15
2018-12-12T15:37:52.728Z,19.57
2018-12-12T15:40:23.324Z,20.10
2018-12-12T15:42:54.334Z,22.80
2018-12-12T15:45:24.800Z,23.20
2018-12-12T15:47:55.780Z,24.72
2018-12-12T15:50:26.385Z,25.77
2018-12-12T15:52:57.110Z,25.27
2018-12-12T15:55:27.527Z,26.93
2018-12-12T15:57:57.971Z,25.97
2018-12-12T16:00:29.126Z,25.37
2018-12-12T16:02:59.961Z,26.42
2018-12-12T16:05:30.654Z,27.90
2018-12-12T16:08:01.345Z,28.95
2018-12-12T16:10:32.036Z,26.68
2018-12-12T16:13:03.010Z,27.30
2018-12-12T16:15:33.906Z,27.40
2018-12-12T16:18:04.761Z,28.87
2018-12-12T16:20:36.541Z,28.50
2018-12-12T16:23:07.472Z,30.37
2018-12-12T16:25:37.957Z,30.68
2018-12-12T16:28:08.610Z,32.10
2018-12-12T16:30:39.463Z,28.75
2018-12-12T16:33:09.861Z,28.02
2018-12-12T16:35:40.526Z,27.02
2018-12-12T16:38:11.194Z,26.00
2018-12-12T16:40:41.957Z,26.37
2018-12-12T16:43:12.293Z,24.23
2018-12-12T16:45:44.999Z,23.77
2018-12-12T16:48:15.342Z,25.32
2018-12-12T16:50:45.958Z,23.27
2018-12-12T16:53:17.067Z,21.68
2018-12-12T16:55:48.298Z,22.13
2018-12-12T16:58:18.826Z,21.90
2018-12-12T17:00:49.444Z,21.48
2018-12-12T17:03:20.309Z,20.82
2018-12-12T17:05:51.007Z,20.55
2018-12-12T17:08:21.643Z,18.85
2018-12-12T17:10:52.191Z,21.42
2018-12-12T17:13:22.837Z,25.20
2018-12-12T17:15:53.776Z,26.82
2018-12-12T17:18:24.811Z,24.50
2018-12-12T17:20:55.294Z,21.82
2018-12-12T17:23:25.794Z,20.48
2018-12-12T17:25:56.519Z,19.15
2018-12-12T17:28:27.209Z,18.75
2018-12-12T17:30:58.062Z,17.70
2018-12-12T17:33:29.159Z,19.40
2018-12-12T17:36:00.026Z,18.55
2018-12-12T17:38:30.880Z,18.35
2018-12-12T17:41:02.085Z,26.90
2018-12-12T17:43:32.533Z,35.83
2018-12-12T17:46:03.245Z,46.63
2018-12-12T17:48:33.818Z,50.25
2018-12-12T17:51:04.544Z,47.75
2018-12-12T17:53:35.199Z,43.50
2018-12-12T17:56:05.908Z,53.55
2018-12-12T17:58:36.609Z,60.90
2018-12-12T18:01:07.669Z,48.23
2018-12-12T18:03:40.222Z,47.65
2018-12-12T18:06:30.629Z,52.67
2018-12-12T18:09:01.494Z,56.00
2018-12-12T18:11:33.403Z,109.45
2018-12-12T18:14:04.112Z,114.25
2018-12-12T18:16:36.804Z,122.40
2018-12-12T18:19:07.367Z,132.57
2018-12-12T18:21:37.975Z,141.70
2018-12-12T18:24:10.961Z,220.60
2018-12-12T18:26:41.616Z,207.90
2018-12-12T18:29:12.187Z,186.77
2018-12-12T18:31:43.916Z,174.97
2018-12-12T18:34:33.168Z,190.75
2018-12-12T18:37:04.063Z,189.77
2018-12-12T18:39:34.953Z,165.32
2018-12-12T18:42:05.651Z,164.47
2018-12-12T18:44:54.402Z,216.82
2018-12-12T18:47:25.419Z,175.85
2018-12-12T18:49:56.203Z,155.57
2018-12-12T18:52:29.625Z,147.28
2018-12-12T18:55:00.669Z,130.20
2018-12-12T18:57:34.167Z,113.65
2018-12-12T19:00:05.056Z,114.80
2018-12-12T19:02:35.545Z,98.78
2018-12-12T19:05:06.542Z,104.65
2018-12-12T19:07:37.365Z,101.12
2018-12-12T19:10:08.222Z,99.25
2018-12-12T19:12:38.874Z,112.52
2018-12-12T19:15:10.152Z,127.10
2018-12-12T19:17:40.913Z,121.40
2018-12-12T19:20:12.766Z,119.75
2018-12-12T19:22:43.471Z,115.57
2018-12-12T19:25:14.087Z,73.65
2018-12-12T19:27:44.945Z,73.30
2018-12-12T19:30:15.775Z,69.60
2018-12-12T19:32:46.257Z,63.63
2018-12-12T19:35:17.048Z,69.37
2018-12-12T19:37:48.018Z,151.07
2018-12-12T19:40:18.607Z,250.07
2018-12-12T19:42:49.176Z,172.15
2018-12-12T19:45:20.776Z,148.43
2018-12-12T19:47:51.448Z,108.50
2018-12-12T19:50:22.223Z,104.30
2018-12-12T19:52:53.007Z,105.32
2018-12-12T19:55:24.523Z,76.80
2018-12-12T19:57:55.291Z,66.87
2018-12-12T20:00:26.115Z,78.25
2018-12-12T20:02:56.717Z,65.05
2018-12-12T20:05:28.593Z,174.12
2018-12-12T20:07:59.107Z,118.95
2018-12-12T20:10:29.782Z,116.75
2018-12-12T20:13:02.968Z,125.53
2018-12-12T20:15:39.606Z,107.50
2018-12-12T20:18:11.155Z,86.12
2018-12-12T20:20:42.028Z,74.72
2018-12-12T20:23:13.166Z,75.83
2018-12-12T20:25:44.462Z,74.27
2018-12-12T20:28:15.151Z,73.72
2018-12-12T20:30:45.877Z,72.42
2018-12-12T20:33:16.820Z,69.20
2018-12-12T20:35:48.202Z,64.20
2018-12-12T20:38:19.208Z,65.10
2018-12-12T20:40:49.925Z,58.90
2018-12-12T20:43:20.785Z,49.25
2018-12-12T20:45:51.558Z,46.35
2018-12-12T20:48:22.090Z,43.65
2018-12-12T20:50:52.696Z,40.78
2018-12-12T20:53:23.462Z,38.58
2018-12-12T20:55:55.109Z,38.50
2018-12-12T20:58:25.846Z,38.50
2018-12-12T21:00:56.832Z,37.90
2018-12-12T21:03:27.287Z,36.93
2018-12-12T21:05:58.152Z,35.63
2018-12-12T21:08:28.736Z,36.48
2018-12-12T21:11:00.232Z,38.35
2018-12-12T21:13:31.089Z,40.08
2018-12-12T21:16:01.617Z,44.03
2018-12-12T21:18:32.217Z,43.00
2018-12-12T21:21:03.047Z,42.85
2018-12-12T21:23:33.631Z,42.27
2018-12-12T21:26:05.355Z,41.28
2018-12-12T21:28:36.077Z,41.40
2018-12-12T21:31:06.654Z,48.70
2018-12-12T21:33:37.200Z,48.80
2018-12-12T21:36:07.795Z,48.10
2018-12-12T21:38:39.510Z,50.83
2018-12-12T21:41:10.206Z,53.15
2018-12-12T21:43:40.784Z,57.27
2018-12-12T21:46:11.572Z,57.23
2018-12-12T21:48:42.094Z,54.03
2018-12-12T21:51:12.711Z,57.03
2018-12-12T21:53:43.681Z,57.15
2018-12-12T21:56:14.402Z,53.17
2018-12-12T21:58:45.343Z,52.40
2018-12-12T22:01:16.643Z,51.08
2018-12-12T22:03:47.491Z,47.80
2018-12-12T22:06:18.178Z,45.88
2018-12-12T22:08:48.797Z,44.15
2018-12-12T22:11:19.582Z,42.65
2018-12-12T22:13:50.935Z,43.83
2018-12-12T22:16:21.845Z,45.17
2018-12-12T22:18:52.575Z,42.50
2018-12-12T22:21:23.386Z,44.48
2018-12-12T22:23:54.295Z,50.33
2018-12-12T22:26:25.100Z,51.10
2018-12-12T22:28:55.828Z,52.83
2018-12-12T22:31:26.672Z,52.75
2018-12-12T22:33:57.367Z,48.28
2018-12-12T22:36:28.341Z,45.88
2018-12-12T22:38:59.486Z,41.98
2018-12-12T22:41:29.898Z,43.52
2018-12-12T22:44:00.464Z,40.92
2018-12-12T22:46:31.154Z,40.33
2018-12-12T22:49:02.123Z,38.95
2018-12-12T22:51:32.827Z,37.65
2018-12-12T22:54:03.585Z,39.67
2018-12-12T22:56:34.319Z,41.42
2018-12-12T22:59:05.147Z,39.25
2018-12-12T23:01:35.961Z,39.25
2018-12-12T23:04:06.864Z,45.58
2018-12-12T23:06:37.687Z,46.25
2018-12-12T23:09:09.446Z,50.98
2018-12-12T23:11:41.072Z,52.15
2018-12-12T23:14:11.826Z,53.95
2018-12-12T23:16:42.798Z,76.82
2018-12-12T23:19:13.462Z,83.92
2018-12-12T23:21:44.140Z,98.30
2018-12-12T23:24:14.857Z,81.47
2018-12-12T23:26:45.982Z,74.05
2018-12-12T23:29:16.841Z,65.78
2018-12-12T23:31:47.921Z,63.10
2018-12-12T23:34:18.303Z,59.73
2018-12-12T23:36:49.096Z,57.98
2018-12-12T23:39:19.571Z,55.12
2018-12-12T23:41:50.416Z,53.52
2018-12-12T23:44:21.142Z,54.73
2018-12-12T23:46:51.759Z,51.58
2018-12-12T23:49:22.596Z,55.03
2018-12-12T23:51:53.324Z,50.30
2018-12-12T23:54:24.414Z,43.63
2018-12-12T23:56:55.254Z,42.23
2018-12-12T23:59:25.795Z,34.92
